createdAt,value
2019-03-13T00:01:32.208Z,46.23
2019-03-13T00:06:37.375Z,46.30
2019-03-13T00:11:42.924Z,47.58
2019-03-13T00:16:48.071Z,47.80
2019-03-13T00:21:53.343Z,47.92
2019-03-13T00:26:58.345Z,49.52
2019-03-13T00:32:05.134Z,52.16
2019-03-13T00:37:10.277Z,55.70
2019-03-13T00:42:15.700Z,59.22
2019-03-13T00:47:22.277Z,61.20
2019-03-13T00:52:27.706Z,62.17
2019-03-13T00:57:33.091Z,62.92
2019-03-13T01:02:41.051Z,66.48
2019-03-13T01:07:46.595Z,67.13
2019-03-13T01:12:52.057Z,68.08
2019-03-13T01:17:57.475Z,68.98
2019-03-13T01:23:02.624Z,69.25
2019-03-13T01:28:08.440Z,69.66
2019-03-13T01:33:16.835Z,70.40
2019-03-13T01:38:21.897Z,71.35
2019-03-13T01:43:26.964Z,71.89
2019-03-13T01:48:33.368Z,72.75
2019-03-13T01:53:39.689Z,74.14
2019-03-13T01:58:44.828Z,75.01
2019-03-13T02:03:49.963Z,74.93
2019-03-13T02:08:55.954Z,74.57
2019-03-13T02:14:01.020Z,75.06
2019-03-13T02:19:06.159Z,75.42
2019-03-13T02:24:12.623Z,77.08
2019-03-13T02:29:17.692Z,77.57
2019-03-13T02:34:23.105Z,79.78
2019-03-13T02:39:28.181Z,79.46
2019-03-13T02:44:33.252Z,77.75
2019-03-13T02:49:38.975Z,77.57
2019-03-13T02:54:44.027Z,77.72
2019-03-13T02:59:49.572Z,77.71
2019-03-13T03:04:56.189Z,78.16
2019-03-13T03:10:01.378Z,78.59
2019-03-13T03:15:12.728Z,79.10
2019-03-13T03:20:19.103Z,79.32
2019-03-13T03:25:24.236Z,79.94
2019-03-13T03:30:29.527Z,80.23
2019-03-13T03:35:35.000Z,79.12
2019-03-13T03:40:40.144Z,78.02
2019-03-13T03:45:45.252Z,78.28
2019-03-13T03:50:50.551Z,78.44
2019-03-13T03:55:55.599Z,79.24
2019-03-13T04:01:01.853Z,79.27
2019-03-13T04:06:07.083Z,79.61
2019-03-13T04:11:13.016Z,80.40
2019-03-13T04:16:18.149Z,80.82
2019-03-13T04:21:23.384Z,79.99
2019-03-13T04:26:28.507Z,80.37
2019-03-13T04:31:33.597Z,78.53
2019-03-13T04:36:38.735Z,78.37
2019-03-13T04:41:43.727Z,75.88
2019-03-13T04:46:48.710Z,76.74
2019-03-13T04:51:54.309Z,76.48
2019-03-13T04:56:59.384Z,77.72
2019-03-13T05:02:04.864Z,77.92
2019-03-13T05:07:10.279Z,78.42
2019-03-13T05:12:15.654Z,77.11
2019-03-13T05:17:20.703Z,78.17
2019-03-13T05:22:25.772Z,76.73
2019-03-13T05:27:30.923Z,76.65
2019-03-13T05:32:35.996Z,75.02
2019-03-13T05:37:41.364Z,74.46
2019-03-13T05:42:46.821Z,73.64
2019-03-13T05:47:51.960Z,72.19
2019-03-13T05:52:57.092Z,72.18
2019-03-13T05:58:02.402Z,72.01
2019-03-13T06:03:07.535Z,72.20
2019-03-13T06:08:13.178Z,73.30
2019-03-13T06:13:18.328Z,73.20
2019-03-13T06:18:23.713Z,72.21
2019-03-13T06:23:29.601Z,72.71
2019-03-13T06:28:35.541Z,73.19
2019-03-13T06:33:40.707Z,73.65
2019-03-13T06:38:46.941Z,73.75
2019-03-13T06:43:52.091Z,74.36
2019-03-13T06:48:57.252Z,75.44
2019-03-13T06:54:02.403Z,74.27
2019-03-13T06:59:13.952Z,74.62
2019-03-13T07:04:24.948Z,73.48
2019-03-13T07:09:47.954Z,72.32
2019-03-13T07:15:12.420Z,70.66
2019-03-13T07:20:28.812Z,69.44
2019-03-13T07:25:52.966Z,68.99
2019-03-13T07:31:16.214Z,68.77
2019-03-13T07:36:42.033Z,66.20
2019-03-13T07:41:57.868Z,65.43
2019-03-13T07:47:29.234Z,63.96
2019-03-13T07:52:52.625Z,62.34
2019-03-13T07:58:26.002Z,65.47
2019-03-13T08:03:46.029Z,66.40
2019-03-13T08:09:05.212Z,63.64
2019-03-13T08:14:17.920Z,63.34
2019-03-13T08:19:42.912Z,65.05
2019-03-13T08:24:59.991Z,63.07
2019-03-13T08:30:30.861Z,64.45
2019-03-13T08:35:53.942Z,62.94
2019-03-13T08:41:27.413Z,64.24
2019-03-13T08:46:51.558Z,62.07
2019-03-13T08:52:16.984Z,62.21
2019-03-13T08:57:44.033Z,61.95
2019-03-13T09:03:14.879Z,60.71
2019-03-13T09:08:39.045Z,62.83
2019-03-13T09:13:58.394Z,62.83
2019-03-13T09:19:10.647Z,61.61
2019-03-13T09:24:34.790Z,60.98
2019-03-13T09:30:08.362Z,60.12
2019-03-13T09:35:26.925Z,61.04
2019-03-13T09:41:00.387Z,61.08
2019-03-13T09:46:36.974Z,62.31
2019-03-13T09:51:50.438Z,62.31
2019-03-13T09:57:33.016Z,61.77
2019-03-13T10:02:48.794Z,60.07
2019-03-13T10:08:00.809Z,59.28
2019-03-13T10:13:36.985Z,59.30
2019-03-13T10:18:59.839Z,60.14
2019-03-13T10:24:27.422Z,58.40
2019-03-13T10:30:03.663Z,57.62
2019-03-13T10:35:27.797Z,57.74
2019-03-13T10:40:43.020Z,55.58
2019-03-13T10:46:07.163Z,57.53
2019-03-13T10:51:35.295Z,58.44
2019-03-13T10:57:00.534Z,56.16
2019-03-13T11:02:24.794Z,57.75
2019-03-13T11:07:49.514Z,56.37
2019-03-13T11:13:05.036Z,55.86
2019-03-13T11:18:36.080Z,57.01
2019-03-13T11:23:47.376Z,54.58
2019-03-13T11:29:08.118Z,54.81
2019-03-13T11:34:21.789Z,53.03
2019-03-13T11:39:33.468Z,52.69
2019-03-13T11:45:00.515Z,52.30
2019-03-13T11:50:18.647Z,54.30
2019-03-13T11:55:33.328Z,52.10
2019-03-13T12:00:52.944Z,52.68
2019-03-13T12:06:16.437Z,51.37
2019-03-13T12:11:36.131Z,52.68
2019-03-13T12:16:52.238Z,50.90
2019-03-13T12:22:28.907Z,52.21
2019-03-13T12:28:00.264Z,52.18
2019-03-13T12:33:16.072Z,51.95
2019-03-13T12:38:49.112Z,51.90
2019-03-13T12:44:07.918Z,51.58
2019-03-13T12:49:34.947Z,51.60
2019-03-13T12:54:58.421Z,48.65
2019-03-13T13:00:12.108Z,49.55
2019-03-13T13:05:26.558Z,49.59
2019-03-13T13:10:45.610Z,49.75
2019-03-13T13:16:12.965Z,50.78
2019-03-13T13:21:18.134Z,49.84
2019-03-13T13:26:23.729Z,49.14
2019-03-13T13:31:29.451Z,48.64
2019-03-13T13:36:34.936Z,48.71
2019-03-13T13:41:40.563Z,49.15
2019-03-13T13:46:46.161Z,49.80
2019-03-13T13:51:51.621Z,52.00
2019-03-13T13:56:56.867Z,50.92
2019-03-13T14:02:02.295Z,52.81
2019-03-13T14:07:08.756Z,53.87
2019-03-13T14:12:14.665Z,53.43
2019-03-13T14:17:20.163Z,53.31
2019-03-13T14:22:25.307Z,54.85
2019-03-13T14:27:31.259Z,55.37
2019-03-13T14:32:36.436Z,54.65
2019-03-13T14:37:42.857Z,54.22
2019-03-13T14:42:48.984Z,55.07
2019-03-13T14:47:54.535Z,55.82
2019-03-13T14:52:59.681Z,55.85
2019-03-13T14:58:04.834Z,54.69
2019-03-13T15:03:11.952Z,55.76
2019-03-13T15:08:18.216Z,55.77
2019-03-13T15:13:23.379Z,54.46
2019-03-13T15:18:29.162Z,55.09
2019-03-13T15:23:34.253Z,55.07
2019-03-13T15:28:39.450Z,55.61
2019-03-13T15:33:44.617Z,55.22
2019-03-13T15:38:50.221Z,54.89
2019-03-13T15:43:55.382Z,54.31
2019-03-13T15:49:00.594Z,54.29
2019-03-13T15:54:06.172Z,54.84
2019-03-13T15:59:12.235Z,55.10
2019-03-13T16:04:17.501Z,55.08
2019-03-13T16:09:23.088Z,55.32
2019-03-13T16:14:28.262Z,56.35
2019-03-13T16:19:33.446Z,55.76
2019-03-13T16:24:38.707Z,56.85
2019-03-13T16:29:44.510Z,58.15
2019-03-13T16:34:49.669Z,59.04
2019-03-13T16:39:54.819Z,59.82
2019-03-13T16:45:00.251Z,60.07
2019-03-13T16:50:06.828Z,60.59
2019-03-13T16:55:14.274Z,60.91
2019-03-13T17:00:22.151Z,61.71
2019-03-13T17:05:30.467Z,61.60
2019-03-13T17:10:36.436Z,61.79
2019-03-13T17:15:41.595Z,62.03
2019-03-13T17:20:46.869Z,61.81
2019-03-13T17:25:52.093Z,61.75
2019-03-13T17:30:58.186Z,61.98
2019-03-13T17:36:04.534Z,62.92
2019-03-13T17:41:09.780Z,65.17
2019-03-13T17:46:15.346Z,68.22
2019-03-13T17:51:20.629Z,68.32
2019-03-13T17:56:26.777Z,67.32
2019-03-13T18:01:32.281Z,67.57
2019-03-13T18:06:40.810Z,67.84
2019-03-13T18:11:46.520Z,68.75
2019-03-13T18:16:52.695Z,69.90
2019-03-13T18:21:57.896Z,70.54
2019-03-13T18:27:03.063Z,71.14
2019-03-13T18:32:08.233Z,71.89
2019-03-13T18:37:13.421Z,72.15
2019-03-13T18:42:18.963Z,72.65
2019-03-13T18:47:26.278Z,72.86
2019-03-13T18:52:31.507Z,73.26
2019-03-13T18:57:36.961Z,74.18
2019-03-13T19:02:43.284Z,74.13
2019-03-13T19:07:48.835Z,74.10
2019-03-13T19:12:53.983Z,73.89
2019-03-13T19:18:01.450Z,77.32
2019-03-13T19:23:06.981Z,80.28
2019-03-13T19:28:12.250Z,82.04
2019-03-13T19:33:17.536Z,82.19
2019-03-13T19:38:23.038Z,82.24
2019-03-13T19:43:28.234Z,83.38
2019-03-13T19:48:33.826Z,83.51
2019-03-13T19:53:41.730Z,83.46
2019-03-13T19:58:45.707Z,83.56
2019-03-13T20:03:55.510Z,82.92
2019-03-13T20:08:58.220Z,82.69
2019-03-13T20:14:03.381Z,81.90
2019-03-13T20:19:09.567Z,81.99
2019-03-13T20:24:14.726Z,81.72
2019-03-13T20:29:20.089Z,81.69
2019-03-13T20:34:25.364Z,81.72
2019-03-13T20:39:30.763Z,81.65
2019-03-13T20:44:35.922Z,82.06
2019-03-13T20:49:41.100Z,81.52
2019-03-13T20:54:46.321Z,81.41
2019-03-13T20:59:52.393Z,81.50
2019-03-13T21:04:58.573Z,81.05
2019-03-13T21:10:04.493Z,81.17
2019-03-13T21:15:11.335Z,81.01
2019-03-13T21:20:17.549Z,82.12
2019-03-13T21:25:24.154Z,81.72
2019-03-13T21:30:29.370Z,82.30
2019-03-13T21:35:34.608Z,82.52
2019-03-13T21:40:40.438Z,82.38
2019-03-13T21:45:46.543Z,82.18
2019-03-13T21:50:51.691Z,82.31
2019-03-13T21:55:57.852Z,82.41
2019-03-13T22:01:03.048Z,82.60
2019-03-13T22:06:08.213Z,82.72
2019-03-13T22:11:14.516Z,82.96
2019-03-13T22:16:20.497Z,82.77
2019-03-13T22:21:25.992Z,82.52
2019-03-13T22:26:31.547Z,82.18
2019-03-13T22:31:38.777Z,82.13
2019-03-13T22:36:44.939Z,82.59
2019-03-13T22:41:50.217Z,82.56
2019-03-13T22:46:55.398Z,82.27
2019-03-13T22:52:01.615Z,81.78
2019-03-13T22:57:07.194Z,81.83
2019-03-13T23:02:13.303Z,80.90
2019-03-13T23:07:19.239Z,80.33
2019-03-13T23:12:24.424Z,80.92
2019-03-13T23:17:29.593Z,80.46
2019-03-13T23:22:34.850Z,79.83
2019-03-13T23:27:40.366Z,79.16
2019-03-13T23:32:45.799Z,79.33
2019-03-13T23:37:51.258Z,77.92
2019-03-13T23:42:57.096Z,79.17
2019-03-13T23:48:02.956Z,79.51
2019-03-13T23:53:08.211Z,78.57
2019-03-13T23:58:13.359Z,78.51
